Aeroporto :
LOGIN :

Iscrizione | Disclaimer

   EN    FR    IT 

 










Sommario :    VFR   VFR Marginale   IFR   IFR Intensivo   IFR Molto Intensivo
Visibilità : 
Base nubi : 
>= 8 km
>= 3000ft
5 / 8 km
1000 / 3000 ft
1500m / 5 km
500 / 1000 ft
800 / 1500m
200 / 500 ft
< 800m
< 200 ft
Simboli :   Temporali  Nebbia  Neve Forte  Precipitazioni Forti  Vento > 20 kt
SIGMETs :   Varie  Temporali  Ghiacco  Turbolenza  Onda orograficha  Ceneri Vulcaniche






- Altitudine del aeroporto : 82 ft
- Codice IATA : QIE


LFMI - Istres

ULTIMO METAR :
  • 101200Z AUTO 20006KT 140V300 CAVOK 30/18 Q1014 NOSIG

METARs OBSOLETI :
  • 101130Z AUTO 22004KT 140V310 CAVOK 30/19 Q1015 NOSIG
  • 101100Z AUTO VRB05KT CAVOK 30/19 Q1015 NOSIG
  • 101030Z AUTO VRB03KT CAVOK 29/17 Q1015 NOSIG
  • 101000Z AUTO 14005KT 100V240 CAVOK 28/18 Q1015 NOSIG
  • 100930Z AUTO 18006KT 130V240 CAVOK 28/18 Q1015 NOSIG

TAF TAF LFMI
Valido dal 10 a 09 ore il 11 a 09 ore UTC


100800Z 1009/1109 11006KT CAVOK
BECMG 1009/1011 19010KT
BECMG 1020/1022 34010KT
BECMG 1105/1107 34015G25KT
TEMPO 1107/1109 34020G35KT



MetMap, La meteo Aeronautica in un colpo d'occhio ! - Copyright ORBIFLY Dicembre 2007 - Disclaimer

ORBIFLY MET'MAP TEAM :

Programmazione e sviluppo : Alexandra Zaïnal
Concezione : Baudouin d'Aumeries
Aiuto per la programmazione : Marc-Olivier Méhu
Supporto tecnico e logistico : Manuel Goepfert
Aiuto per la traduzione : Arnaldo La Scala

Contatto : metmap@orbifly.com




FONTI E CREDITI :

   NOAA